• Join FlightAware (Why Join?)
  • Login
  • US Flag 
07:44AM EDT


 

Airport Tracker/Info


-or-


 

Live Flight TrackerFlight Track Log ✈ AWI3688 ✈ 04-May-2013 ✈ KALB - KPHL

Flight Track Log - Related Links

Times and Time Zones

All times are in EDT time to prevent confusion due to time zone crossing. See the AWI3688 flight status page for this flight to view local times or setup timezone preferences in your user account.

Time Position Orientation Groundspeed Altitude Reporting Facility
EDT Latitude Longitude Course Direction KTS MPH feet Rate Location/Type
01:44PM 42.7672 -73.8061 219° Southwest 151 174 1,000  Level Boston Center
01:44PM 42.7942 -73.8378 319° Northwest 190 219 2,300 1,860 Climbing Boston Center
01:46PM 42.7886 -73.9311 265° West 267 307 4,400 2,280 Climbing Boston Center
01:46PM 42.7839 -73.9847 263° West 275 316 6,000 2,280 Climbing Boston Center
01:47PM 42.6766 -74.3785 220° Southwest  Level FlightAware Approximate
01:47PM 42.7742 -74.0722 261° West 288 331 8,300  Level Boston Center
01:48PM 42.5901 -74.4758 220° Southwest  Level FlightAware Approximate
01:48PM 42.7553 -74.2244 260° West 295 339 11,800  Level Boston Center
01:49PM 42.5067 -74.5777 219° Southwest  Level FlightAware Approximate
01:49PM 42.7225 -74.3281 247° West 307 353 14,300  Level Boston Center
01:50PM 42.4200 -74.6742 219° Southwest  Level FlightAware Approximate
01:50PM 42.6564 -74.4106 223° Southwest 312 359 15,900  Level Boston Center
01:51PM 42.5839 -74.4931 220° Southwest 333 383 17,800 1,020 Climbing Boston Center
01:52PM 42.5072 -74.5806 220° Southwest 354 407 18,000 60 Climbing Boston Center
01:53PM 42.4242 -74.6761 220° Southwest 379 436 18,000  Level Boston Center
01:55PM 42.2631 -74.8619 221° Southwest 384 442 18,000  Level New York Center
01:56PM 42.1850 -74.9494 220° Southwest 379 436 18,000  Level New York Center
01:57PM 42.0992 -75.0250 213° Southwest 373 429 18,000  Level New York Center
01:58PM 42.0133 -75.0947 211° Southwest 365 420 18,000  Level New York Center
01:59PM 41.9167 -75.1747 212° Southwest 371 427 18,000  Level New York Center
02:00PM 41.8306 -75.2497 213° Southwest 382 440 18,000  Level New York Center
02:01PM 41.7622 -75.3481 227° Southwest 377 434 18,000  Level New York Center
02:02PM 41.6769 -75.4033 206° Southwest 372 428 18,000 -240 Level New York Center
02:03PM 41.5847 -75.4689 208° Southwest 377 434 17,600 -1,260 Descending New York Center
02:04PM 41.4839 -75.5422 209° Southwest 380 437 15,600 -1,920 Descending New York Center
02:05PM 41.3961 -75.6025 207° Southwest 375 432 13,800 -1,800 Descending New York Center
02:06PM 41.3103 -75.6625 208° Southwest 368 423 12,100 -960 Descending New York Center
02:07PM 41.2300 -75.6897 194° South 318 366 12,000 -60 Descending New York Center
02:08PM 41.1550 -75.6872 179° South 300 345 12,000 -300 Level New York Center
02:09PM 41.0792 -75.6622 166° South 294 338 11,400 -900 Descending New York Center
02:10PM 40.9947 -75.6342 166° South 294 338 10,200 -720 Descending New York Center
02:11PM 40.9231 -75.6072 164° South 287 330 10,000 -120 Descending New York Center
02:12PM 40.8511 -75.5800 164° South 287 330 10,000  Level New York Center
02:13PM 40.7753 -75.5528 165° South 287 330 10,000  Level New York Center
02:14PM 40.6911 -75.5197 163° South 287 330 10,000  Level New York Center
02:15PM 40.6108 -75.4922 165° South 292 336 10,000  Level New York Center
02:16PM 40.5350 -75.4650 165° South 292 336 10,000  Level New York Center
02:17PM 40.4650 -75.4386 164° South 297 342 10,000 -540 Level New York Center
02:18PM 40.3861 -75.4358 178° South 268 308 9,000 -1,140 Descending New York Center
02:19PM 40.3208 -75.4533 192° South 253 291 7,800 -1,020 Descending New York Center
02:20PM 40.2575 -75.4708 192° South 247 284 7,000 -420 Descending New York Center
02:21PM 40.1944 -75.4828 188° South 248 285 7,000  Level New York Center
02:22PM 40.1294 -75.4403 153° Southeast 232 267 7,000  Level New York Center
02:23PM 40.0828 -75.4075 152° Southeast 232 267 7,000 -480 Level New York Center
02:24PM 40.0258 -75.3711 154° Southeast 213 245 6,100 -660 Descending New York Center
02:25PM 40.0000 -75.3500 148° Southeast 199 229 6,000 -180 Descending Philadelphia TRACON
02:26PM 39.9667 -75.3833 217° Southwest 233 268 5,900 -300 Descending Philadelphia TRACON
02:26PM 39.9553 -75.4206 248° West 167 192 5,600 -660 Descending New York Center
02:27PM 39.9442 -75.4875 258° West 180 207 5,000 -360 Descending New York Center
02:28PM 39.9322 -75.5733 260° West 212 244 5,000  Level New York Center
02:29PM 39.9214 -75.6350 257° West 217 250 5,000 -420 Level New York Center
02:31PM 39.8667 -75.7167 229° Southwest 196 226 4,000 -420 Descending Philadelphia TRACON
02:32PM 39.8167 -75.7167 180° South 197 227 4,000  Level Philadelphia TRACON
02:33PM 39.7833 -75.6833 142° Southeast 171 197 4,000 -60 Level Philadelphia TRACON
02:34PM 39.7833 -75.6167 90° East 169 194 3,900  Descending Philadelphia TRACON
02:35PM 39.8000 -75.5667 67° East 176 203 4,000 -60 Climbing Philadelphia TRACON
02:36PM 39.8167 -75.5167 67° East 171 197 3,800 -540 Descending Philadelphia TRACON
02:37PM 39.8333 -75.4500 72° East 168 193 3,000 -840 Descending Philadelphia TRACON
02:38PM 39.8333 -75.3833 90° East 167 192 2,100 -900 Descending Philadelphia TRACON
02:39PM 39.8500 -75.3333 67° East 120 138 1,200 -900 Descending Philadelphia TRACON
02:40PM 39.8500 -75.3000 90° East 132 152 400 -840 Descending Philadelphia TRACON